Time;durP1;ratioP1;P1;durP2;ratioP2;P2;SDS_P1;SDS_P2;PMS_P1;PMS_P2;Temp;Humidity;BMP_temperature;BMP_pressure;BME280_temperature;BME280_humidity;BME280_pressure;Samples;Min_cycle;Max_cycle;Signal;HPM_P1;HPM_P2
2023/06/14 00:00:14;;;;;;;7.00;2.97;;;17.80;93.10;;;;;;5043992;28;20076;-80
2023/06/14 00:02:42;;;;;;;3.33;2.85;;;17.70;92.80;;;;;;5046422;28;20052;-80
2023/06/14 00:05:11;;;;;;;7.05;2.75;;;17.80;92.70;;;;;;5045842;28;20049;-82
2023/06/14 00:07:43;;;;;;;3.80;2.83;;;17.70;92.80;;;;;;5042045;28;20101;-81
2023/06/14 00:10:11;;;;;;;3.55;2.60;;;17.70;92.90;;;;;;5046271;28;20041;-80
2023/06/14 00:12:39;;;;;;;6.18;2.97;;;17.70;92.80;;;;;;5043954;28;20533;-81
2023/06/14 00:15:06;;;;;;;7.07;3.10;;;17.70;93.10;;;;;;5046091;28;20046;-80
2023/06/14 00:17:33;;;;;;;5.85;3.75;;;17.60;93.00;;;;;;5045970;28;20045;-80
2023/06/14 00:20:05;;;;;;;5.35;3.03;;;17.60;92.80;;;;;;5045521;28;20089;-80
2023/06/14 00:22:32;;;;;;;4.70;2.58;;;17.60;92.70;;;;;;5045899;28;20079;-80
2023/06/14 00:24:59;;;;;;;4.95;3.25;;;17.50;92.10;;;;;;5045565;28;20103;-81
2023/06/14 00:27:40;;;;;;;4.47;2.53;;;17.50;92.30;;;;;;5045862;28;20049;-80
2023/06/14 00:30:08;;;;;;;3.40;3.00;;;17.50;92.40;;;;;;5046850;28;20461;-80
2023/06/14 00:32:35;;;;;;;3.35;2.67;;;17.50;92.60;;;;;;5047675;28;20045;-79
2023/06/14 00:35:02;;;;;;;6.80;2.50;;;17.40;92.50;;;;;;5048670;28;20049;-79
2023/06/14 00:37:28;;;;;;;4.68;2.92;;;17.40;92.20;;;;;;5047451;28;20049;-80
2023/06/14 00:39:55;;;;;;;4.57;2.85;;;17.50;92.40;;;;;;5046646;28;20054;-80
2023/06/14 00:42:27;;;;;;;3.03;2.42;;;17.40;91.80;;;;;;5039609;28;20081;-79
2023/06/14 00:44:54;;;;;;;4.80;2.85;;;17.40;92.00;;;;;;5045437;28;20049;-79
2023/06/14 00:47:22;;;;;;;3.33;2.40;;;17.40;92.20;;;;;;5038739;28;20041;-81
2023/06/14 00:49:50;;;;;;;7.75;3.10;;;17.40;91.50;;;;;;5044515;28;20129;-80
2023/06/14 00:52:18;;;;;;;4.18;2.80;;;17.30;91.50;;;;;;5039202;28;20041;-81
2023/06/14 00:54:45;;;;;;;7.50;2.65;;;17.30;91.90;;;;;;5044606;28;20041;-81
2023/06/14 00:57:13;;;;;;;4.13;2.55;;;17.30;92.30;;;;;;5042926;28;20049;-80
2023/06/14 00:59:48;;;;;;;3.72;2.90;;;17.30;92.70;;;;;;5044113;28;20360;-81
2023/06/14 01:02:16;;;;;;;4.18;2.55;;;17.30;93.10;;;;;;5042453;28;20103;-81
2023/06/14 01:04:47;;;;;;;4.22;2.63;;;17.30;93.40;;;;;;5044178;28;20041;-81
2023/06/14 01:07:41;;;;;;;2.92;2.40;;;17.20;93.30;;;;;;5041467;28;20604;-80
2023/06/14 01:10:07;;;;;;;4.45;3.08;;;17.20;93.10;;;;;;5042734;28;20057;-80
2023/06/14 01:12:45;;;;;;;4.90;2.85;;;17.20;92.80;;;;;;5037696;28;20038;-81
2023/06/14 01:15:13;;;;;;;5.60;2.63;;;17.20;93.10;;;;;;5059732;28;20449;-81
2023/06/14 01:17:43;;;;;;;3.63;2.40;;;17.20;93.30;;;;;;5040895;28;20469;-81
2023/06/14 01:20:14;;;;;;;5.90;2.10;;;17.10;93.50;;;;;;5044583;28;20064;-79
2023/06/14 01:22:52;;;;;;;5.78;2.78;;;17.10;93.20;;;;;;5043821;28;20100;-81
2023/06/14 01:25:23;;;;;;;4.35;2.70;;;17.00;92.40;;;;;;5045727;28;20116;-78
2023/06/14 01:27:55;;;;;;;4.28;2.47;;;17.10;92.40;;;;;;5044217;28;20045;-81
2023/06/14 01:30:25;;;;;;;5.50;2.70;;;17.00;92.30;;;;;;5046017;28;20096;-80
2023/06/14 01:32:53;;;;;;;2.30;2.03;;;17.00;91.70;;;;;;5047484;28;20109;-80
2023/06/14 01:35:20;;;;;;;3.17;2.47;;;17.00;91.80;;;;;;5046853;28;20038;-81
2023/06/14 01:37:49;;;;;;;4.63;2.60;;;17.00;92.10;;;;;;5044654;28;20072;-79
2023/06/14 01:40:17;;;;;;;3.70;2.80;;;16.90;91.50;;;;;;5044858;28;20177;-79
2023/06/14 01:42:46;;;;;;;4.53;2.22;;;16.90;91.30;;;;;;5044843;28;20072;-80
2023/06/14 01:45:14;;;;;;;4.57;2.50;;;16.90;91.50;;;;;;5044886;28;20046;-78
2023/06/14 01:47:41;;;;;;;4.80;2.45;;;16.90;91.70;;;;;;5045144;28;20050;-79
2023/06/14 01:50:09;;;;;;;3.63;2.72;;;16.90;91.90;;;;;;5046231;28;20084;-81
2023/06/14 01:52:37;;;;;;;4.25;2.90;;;16.80;91.20;;;;;;5041339;28;20053;-77
2023/06/14 01:55:05;;;;;;;6.60;3.00;;;16.90;91.70;;;;;;5041808;28;20037;-78
2023/06/14 01:57:32;;;;;;;5.80;2.42;;;16.80;91.90;;;;;;5043298;28;20046;-79
2023/06/14 01:59:59;;;;;;;3.17;2.50;;;16.80;92.80;;;;;;5042820;28;20045;-81
2023/06/14 02:02:25;;;;;;;4.15;2.70;;;16.80;93.10;;;;;;5043416;28;20053;-79
2023/06/14 02:04:52;;;;;;;3.28;2.53;;;16.70;93.40;;;;;;5047653;28;20585;-80
2023/06/14 02:07:19;;;;;;;4.90;3.00;;;16.80;93.50;;;;;;5046026;28;20056;-80
2023/06/14 02:09:46;;;;;;;4.60;2.70;;;16.70;93.80;;;;;;5047639;28;20045;-79
2023/06/14 02:12:12;;;;;;;2.97;2.25;;;16.70;93.80;;;;;;5047671;28;20417;-79
2023/06/14 02:14:39;;;;;;;3.30;2.60;;;16.70;94.10;;;;;;5046653;28;20030;-80
2023/06/14 02:17:06;;;;;;;3.28;2.40;;;16.70;94.10;;;;;;5047869;28;20045;-80
2023/06/14 02:19:33;;;;;;;4.50;2.72;;;16.60;93.90;;;;;;5047179;28;20473;-80
2023/06/14 02:22:00;;;;;;;6.72;2.75;;;16.60;93.90;;;;;;5050277;28;20041;-79
2023/06/14 02:24:27;;;;;;;7.50;2.83;;;16.60;94.20;;;;;;5048832;28;20049;-79
2023/06/14 02:26:53;;;;;;;5.78;2.97;;;16.60;94.50;;;;;;5048854;28;20042;-81
2023/06/14 02:29:20;;;;;;;3.45;2.45;;;16.60;94.50;;;;;;5047053;28;20089;-80
2023/06/14 02:31:48;;;;;;;5.18;2.30;;;16.50;94.20;;;;;;5047672;28;20073;-80
2023/06/14 02:34:17;;;;;;;4.80;2.83;;;16.50;94.40;;;;;;5047145;28;20048;-80
2023/06/14 02:36:44;;;;;;;2.97;2.30;;;16.50;94.50;;;;;;5048649;28;20046;-80
2023/06/14 02:39:11;;;;;;;6.60;2.72;;;16.50;94.50;;;;;;5048270;28;20054;-80
2023/06/14 02:41:38;;;;;;;6.90;2.60;;;16.40;94.20;;;;;;5047115;28;20072;-80
2023/06/14 02:44:06;;;;;;;5.53;2.80;;;16.40;94.90;;;;;;5047143;28;20041;-81
2023/06/14 02:46:32;;;;;;;5.05;2.40;;;16.40;95.10;;;;;;5046541;28;20045;-81
2023/06/14 02:49:00;;;;;;;5.68;2.95;;;16.30;95.40;;;;;;5047003;28;20045;-80
2023/06/14 02:51:26;;;;;;;7.57;3.10;;;16.30;95.40;;;;;;5047749;28;20051;-80
2023/06/14 02:53:53;;;;;;;3.67;3.00;;;16.30;95.60;;;;;;5043521;28;20048;-80
2023/06/14 02:56:20;;;;;;;4.47;2.78;;;16.20;95.40;;;;;;5047004;28;20095;-79
2023/06/14 02:58:48;;;;;;;3.75;2.65;;;16.20;95.40;;;;;;5045923;28;20527;-80
2023/06/14 03:01:16;;;;;;;3.97;2.55;;;16.20;95.30;;;;;;5047249;28;20049;-81
2023/06/14 03:03:43;;;;;;;3.72;2.63;;;16.10;95.10;;;;;;5047368;28;20041;-82
2023/06/14 03:06:12;;;;;;;3.25;2.50;;;16.10;95.30;;;;;;5047025;28;20063;-80
2023/06/14 03:08:41;;;;;;;3.38;2.58;;;16.10;95.60;;;;;;5047124;28;20065;-81
2023/06/14 03:11:11;;;;;;;4.10;2.53;;;16.10;95.90;;;;;;5047438;28;20045;-81
2023/06/14 03:13:38;;;;;;;6.40;2.43;;;16.00;95.70;;;;;;5048249;28;20025;-81
2023/06/14 03:16:07;;;;;;;2.90;2.17;;;16.00;95.80;;;;;;5049778;28;20041;-79
2023/06/14 03:18:35;;;;;;;3.40;2.42;;;16.00;95.60;;;;;;5047819;28;20080;-82
2023/06/14 03:21:02;;;;;;;3.15;2.47;;;15.90;96.00;;;;;;5047210;28;20059;-80
2023/06/14 03:23:29;;;;;;;4.45;2.67;;;15.90;96.10;;;;;;5047723;28;20128;-80
2023/06/14 03:25:56;;;;;;;5.50;2.80;;;15.90;96.20;;;;;;5046851;28;20052;-80
2023/06/14 03:28:23;;;;;;;5.00;2.50;;;15.80;96.30;;;;;;5045633;28;20055;-80
2023/06/14 03:30:50;;;;;;;4.80;2.60;;;15.80;96.00;;;;;;5047404;28;20046;-81
2023/06/14 03:33:17;;;;;;;4.93;2.60;;;15.80;96.10;;;;;;5047494;28;20104;-80
2023/06/14 03:35:44;;;;;;;5.55;2.88;;;15.70;96.10;;;;;;5043155;28;20490;-79
2023/06/14 03:38:11;;;;;;;5.28;2.80;;;15.70;96.20;;;;;;5046263;28;20046;-80
2023/06/14 03:40:37;;;;;;;5.05;2.65;;;15.70;95.90;;;;;;5047216;28;20075;-81
2023/06/14 03:43:04;;;;;;;4.85;2.40;;;15.70;96.00;;;;;;5047263;28;20054;-81
2023/06/14 03:45:31;;;;;;;3.95;2.40;;;15.70;96.00;;;;;;5047248;28;20112;-81
2023/06/14 03:48:00;;;;;;;4.50;2.33;;;15.70;96.20;;;;;;5044824;28;20418;-81
2023/06/14 03:50:28;;;;;;;2.93;2.23;;;15.70;96.20;;;;;;5047374;28;20076;-80
2023/06/14 03:52:55;;;;;;;5.95;2.63;;;15.60;96.20;;;;;;5047659;28;20045;-80
2023/06/14 03:55:25;;;;;;;5.50;2.70;;;15.60;96.30;;;;;;5046165;28;20042;-81
2023/06/14 03:58:13;;;;;;;6.25;2.75;;;15.60;96.50;;;;;;5046075;28;20057;-81
2023/06/14 04:00:40;;;;;;;4.18;2.30;;;15.50;96.60;;;;;;5047333;28;20087;-80
2023/06/14 04:03:06;;;;;;;5.38;3.13;;;15.50;96.60;;;;;;5047339;28;20045;-81
2023/06/14 04:05:33;;;;;;;3.67;2.45;;;15.50;96.40;;;;;;5047835;28;20053;-81
2023/06/14 04:08:00;;;;;;;3.63;2.75;;;15.50;96.50;;;;;;5048223;28;20045;-80
2023/06/14 04:10:27;;;;;;;5.13;2.97;;;15.50;96.40;;;;;;5049641;28;20055;-82
2023/06/14 04:12:54;;;;;;;6.88;2.90;;;15.50;96.40;;;;;;5049159;28;20046;-80
2023/06/14 04:15:21;;;;;;;4.68;2.65;;;15.50;96.40;;;;;;5048776;28;20485;-79
2023/06/14 04:17:48;;;;;;;6.53;3.05;;;15.50;96.40;;;;;;5047761;28;20486;-80
2023/06/14 04:20:16;;;;;;;4.43;2.97;;;15.50;96.80;;;;;;5045273;28;20045;-81
2023/06/14 04:22:43;;;;;;;3.53;2.55;;;15.50;96.80;;;;;;5047864;28;20053;-80
2023/06/14 04:25:11;;;;;;;4.97;2.65;;;15.50;96.70;;;;;;5047368;28;20094;-81
2023/06/14 04:27:38;;;;;;;3.35;2.60;;;15.50;97.10;;;;;;5043774;28;20041;-81
2023/06/14 04:30:05;;;;;;;4.22;2.53;;;15.50;97.00;;;;;;5048398;28;20045;-81
2023/06/14 04:32:38;;;;;;;3.83;2.78;;;15.60;96.70;;;;;;5046218;28;20041;-79
2023/06/14 04:35:07;;;;;;;6.55;2.78;;;15.60;96.90;;;;;;5047046;28;20071;-81
2023/06/14 04:37:34;;;;;;;6.38;2.90;;;15.60;97.00;;;;;;5045837;28;20403;-81
2023/06/14 04:40:03;;;;;;;4.43;2.97;;;15.60;96.80;;;;;;5047188;28;20033;-82
2023/06/14 04:42:31;;;;;;;3.67;2.80;;;15.70;96.90;;;;;;5041012;28;20168;-80
2023/06/14 04:44:58;;;;;;;6.43;2.55;;;15.70;97.00;;;;;;5047611;28;20109;-81
2023/06/14 04:47:29;;;;;;;5.18;2.85;;;15.70;97.00;;;;;;5040592;28;20061;-80
2023/06/14 04:49:57;;;;;;;4.18;2.80;;;15.80;96.90;;;;;;5047041;28;20045;-80
2023/06/14 04:52:26;;;;;;;3.78;2.35;;;15.80;97.40;;;;;;5044649;28;20073;-81
2023/06/14 04:54:54;;;;;;;6.47;2.88;;;16.00;97.00;;;;;;5047533;28;20045;-79
2023/06/14 04:57:22;;;;;;;4.30;3.00;;;16.10;97.10;;;;;;5043203;28;20049;-80
2023/06/14 04:59:54;;;;;;;5.13;2.83;;;16.30;97.00;;;;;;5046347;28;20069;-81
2023/06/14 05:02:25;;;;;;;6.53;3.00;;;16.50;97.10;;;;;;5045554;28;20053;-82
2023/06/14 05:04:54;;;;;;;9.02;2.78;;;16.70;96.60;;;;;;5047834;28;20041;-82
2023/06/14 05:07:23;;;;;;;7.90;3.03;;;16.80;96.70;;;;;;5044595;28;20091;-81
2023/06/14 05:09:50;;;;;;;4.18;2.50;;;17.00;96.70;;;;;;5046874;28;20068;-81
2023/06/14 05:12:18;;;;;;;9.60;3.28;;;17.20;96.90;;;;;;5045252;28;20045;-81
2023/06/14 05:14:45;;;;;;;4.93;3.00;;;17.40;96.40;;;;;;5046345;28;20041;-83
2023/06/14 05:17:12;;;;;;;4.97;2.65;;;17.60;96.20;;;;;;5044405;28;20046;-81
2023/06/14 05:19:39;;;;;;;9.57;2.85;;;17.70;96.20;;;;;;5046563;28;20045;-81
2023/06/14 05:22:06;;;;;;;7.88;3.10;;;17.90;96.20;;;;;;5046654;28;20140;-81
2023/06/14 05:24:33;;;;;;;4.57;2.90;;;18.00;95.90;;;;;;5045711;28;20050;-81
2023/06/14 05:27:00;;;;;;;6.22;3.33;;;18.10;95.80;;;;;;5045283;28;20049;-80
2023/06/14 05:29:27;;;;;;;4.30;3.35;;;18.30;95.20;;;;;;5045504;28;20056;-81
2023/06/14 05:31:56;;;;;;;8.07;3.88;;;18.40;95.40;;;;;;5048371;28;20037;-81
2023/06/14 05:34:23;;;;;;;9.82;4.28;;;18.40;94.90;;;;;;5046053;28;20049;-82
2023/06/14 05:36:50;;;;;;;10.95;5.18;;;18.50;95.20;;;;;;5048295;28;20045;-82
2023/06/14 05:39:17;;;;;;;7.15;4.47;;;18.60;95.00;;;;;;5051113;28;20048;-83
2023/06/14 05:41:44;;;;;;;8.13;4.63;;;18.60;95.30;;;;;;5051385;28;20075;-81
2023/06/14 05:44:10;;;;;;;6.88;4.32;;;18.60;94.90;;;;;;5049010;28;20058;-80
2023/06/14 05:46:39;;;;;;;10.40;5.15;;;18.60;94.70;;;;;;5046755;28;20029;-82
2023/06/14 05:49:07;;;;;;;10.82;4.45;;;18.60;94.70;;;;;;5049479;28;20068;-81
2023/06/14 05:51:34;;;;;;;15.13;4.55;;;18.50;94.90;;;;;;5050883;28;20472;-80
2023/06/14 05:54:01;;;;;;;11.32;4.85;;;18.50;95.30;;;;;;5048396;28;20029;-79
2023/06/14 05:56:28;;;;;;;8.57;4.82;;;18.50;95.10;;;;;;5050780;28;20072;-81
2023/06/14 05:58:55;;;;;;;8.57;4.75;;;18.40;94.90;;;;;;5045241;28;20117;-82
2023/06/14 06:01:21;;;;;;;9.85;4.57;;;18.30;94.90;;;;;;5051536;28;20053;-79
2023/06/14 06:03:48;;;;;;;10.85;4.57;;;18.30;95.30;;;;;;5048290;28;20052;-81
2023/06/14 06:06:16;;;;;;;8.82;4.32;;;18.30;95.50;;;;;;5050405;28;20052;-81
2023/06/14 06:08:43;;;;;;;7.80;4.18;;;18.30;95.60;;;;;;5048208;28;20045;-81
2023/06/14 06:11:10;;;;;;;9.70;4.60;;;18.30;95.70;;;;;;5051138;28;20038;-80
2023/06/14 06:13:38;;;;;;;6.53;4.10;;;18.30;95.90;;;;;;5048011;28;20143;-81
2023/06/14 06:16:05;;;;;;;8.05;4.22;;;18.30;96.00;;;;;;5050377;28;20101;-80
2023/06/14 06:18:32;;;;;;;12.65;4.15;;;18.30;96.10;;;;;;5047995;28;20065;-79
2023/06/14 06:20:59;;;;;;;12.52;4.30;;;18.30;95.70;;;;;;5051069;28;20061;-81
2023/06/14 06:23:26;;;;;;;11.23;4.18;;;18.30;95.50;;;;;;5046590;28;20445;-77
2023/06/14 06:25:53;;;;;;;7.63;3.95;;;18.30;95.90;;;;;;5048092;28;20095;-81
2023/06/14 06:28:20;;;;;;;6.32;4.15;;;18.30;95.70;;;;;;5049162;28;20041;-81
2023/06/14 06:30:47;;;;;;;4.63;3.72;;;18.30;95.50;;;;;;5050033;28;20047;-79
2023/06/14 06:33:14;;;;;;;7.72;4.30;;;18.30;95.30;;;;;;5049777;28;20052;-80
2023/06/14 06:35:41;;;;;;;8.52;4.10;;;18.30;95.50;;;;;;5049723;28;20045;-81
2023/06/14 06:38:09;;;;;;;11.07;4.45;;;18.30;96.10;;;;;;5049488;28;20046;-81
2023/06/14 06:40:37;;;;;;;7.10;3.97;;;18.30;95.80;;;;;;5049937;28;20045;-81
2023/06/14 06:43:03;;;;;;;9.13;4.00;;;18.30;95.70;;;;;;5050668;28;20041;-82
2023/06/14 06:45:30;;;;;;;8.93;4.53;;;18.30;95.80;;;;;;5048938;28;20057;-81
2023/06/14 06:47:57;;;;;;;6.90;4.22;;;18.30;96.00;;;;;;5049636;28;20156;-81
2023/06/14 06:50:24;;;;;;;15.55;4.40;;;18.30;96.00;;;;;;5049659;28;20060;-81
2023/06/14 06:52:52;;;;;;;11.45;4.10;;;18.40;95.90;;;;;;5049244;28;20041;-80
2023/06/14 06:55:20;;;;;;;8.63;4.38;;;18.40;96.20;;;;;;5046187;28;20041;-80
2023/06/14 06:57:47;;;;;;;8.70;4.50;;;18.40;95.70;;;;;;5046731;28;20042;-80
2023/06/14 07:00:14;;;;;;;7.57;4.28;;;18.40;95.30;;;;;;5047134;28;20417;-79
2023/06/14 07:02:41;;;;;;;12.15;4.40;;;18.40;95.60;;;;;;5049754;28;20100;-82
2023/06/14 07:05:08;;;;;;;8.88;4.68;;;18.40;95.90;;;;;;5050302;28;20037;-83
2023/06/14 07:07:35;;;;;;;6.88;4.32;;;18.30;95.90;;;;;;5049164;28;20098;-79
2023/06/14 07:10:04;;;;;;;7.25;4.32;;;18.40;96.50;;;;;;5050502;28;20053;-81
2023/06/14 07:12:33;;;;;;;10.15;3.88;;;18.30;96.20;;;;;;5049881;28;20042;-81
2023/06/14 07:15:00;;;;;;;10.18;4.05;;;18.30;96.40;;;;;;5051084;28;20033;-82
2023/06/14 07:17:27;;;;;;;6.65;3.83;;;18.30;96.60;;;;;;5051432;28;20073;-83
2023/06/14 07:19:54;;;;;;;10.85;4.10;;;18.30;95.60;;;;;;5052228;28;20076;-80
2023/06/14 07:22:21;;;;;;;10.20;3.85;;;18.20;95.50;;;;;;5052195;28;20041;-83
2023/06/14 07:24:47;;;;;;;13.75;4.55;;;18.20;95.40;;;;;;5051997;28;20080;-82
2023/06/14 07:27:14;;;;;;;12.80;3.85;;;18.30;95.70;;;;;;5049228;28;20145;-82
2023/06/14 07:29:41;;;;;;;7.30;3.88;;;18.30;95.60;;;;;;5051279;28;20046;-82
2023/06/14 07:32:08;;;;;;;9.30;3.78;;;18.30;95.20;;;;;;5052253;28;20041;-80
2023/06/14 07:34:34;;;;;;;10.52;3.35;;;18.40;94.50;;;;;;5045541;28;20044;-80
2023/06/14 07:37:02;;;;;;;5.13;3.25;;;18.40;94.70;;;;;;5039646;28;20045;-78
2023/06/14 07:39:28;;;;;;;6.35;3.42;;;18.40;95.00;;;;;;5040427;28;20056;-80
2023/06/14 07:41:56;;;;;;;7.88;3.10;;;18.50;95.20;;;;;;5040700;28;20490;-80
2023/06/14 07:44:23;;;;;;;9.65;3.55;;;18.50;95.30;;;;;;5039316;28;20100;-79
2023/06/14 07:46:49;;;;;;;10.55;3.67;;;18.60;95.40;;;;;;5048360;28;20072;-83
2023/06/14 07:49:16;;;;;;;6.65;3.90;;;18.60;95.60;;;;;;5051839;28;20041;-81
2023/06/14 07:51:44;;;;;;;4.10;3.15;;;18.60;96.00;;;;;;5051665;28;20060;-82
2023/06/14 07:54:11;;;;;;;7.63;3.65;;;18.70;95.90;;;;;;5050219;28;20041;-83
2023/06/14 07:56:38;;;;;;;5.22;3.83;;;18.80;96.20;;;;;;5050603;28;20064;-82
2023/06/14 07:59:05;;;;;;;7.63;3.15;;;18.80;96.60;;;;;;5051041;28;20478;-82
2023/06/14 08:01:33;;;;;;;6.95;4.15;;;18.90;96.60;;;;;;5050730;28;20045;-83
2023/06/14 08:04:00;;;;;;;6.40;3.97;;;19.00;96.60;;;;;;5051000;28;20101;-83
2023/06/14 08:06:27;;;;;;;7.30;4.10;;;19.00;96.50;;;;;;5050889;28;20038;-82
2023/06/14 08:08:54;;;;;;;14.63;4.00;;;19.10;97.20;;;;;;5048859;28;20037;-82
2023/06/14 08:11:21;;;;;;;7.22;3.60;;;19.10;97.30;;;;;;5049835;28;20086;-82
2023/06/14 08:13:47;;;;;;;6.90;3.72;;;19.20;97.40;;;;;;5050491;28;20060;-82
2023/06/14 08:16:14;;;;;;;7.57;4.20;;;19.30;97.50;;;;;;5050135;28;20732;-81
2023/06/14 08:18:41;;;;;;;7.40;3.50;;;19.30;97.10;;;;;;5049589;28;20042;-82
2023/06/14 08:21:08;;;;;;;10.88;3.55;;;19.40;96.90;;;;;;5050545;28;20049;-84
2023/06/14 08:23:36;;;;;;;6.75;3.95;;;19.40;97.00;;;;;;5048713;28;20095;-82
2023/06/14 08:26:04;;;;;;;8.05;4.15;;;19.50;96.00;;;;;;5050308;28;20072;-82
2023/06/14 08:28:30;;;;;;;5.10;3.10;;;19.50;95.60;;;;;;5049044;28;20053;-82
2023/06/14 08:30:57;;;;;;;8.55;3.65;;;19.60;95.70;;;;;;5049490;28;20037;-81
2023/06/14 08:33:24;;;;;;;5.82;3.20;;;19.70;94.70;;;;;;5047605;28;20072;-83
2023/06/14 08:35:50;;;;;;;6.28;3.67;;;19.70;95.00;;;;;;5046739;28;20041;-81
2023/06/14 08:38:17;;;;;;;6.50;3.83;;;19.80;95.00;;;;;;5043903;28;20049;-82
2023/06/14 08:40:47;;;;;;;10.00;3.88;;;19.90;95.00;;;;;;5050073;28;20052;-82
2023/06/14 08:43:14;;;;;;;8.23;3.05;;;20.00;94.90;;;;;;5037294;28;20079;-79
2023/06/14 08:45:41;;;;;;;6.78;3.45;;;20.10;94.80;;;;;;5039563;28;20041;-80
2023/06/14 08:48:08;;;;;;;9.77;3.67;;;20.10;95.20;;;;;;5037920;28;20087;-81
2023/06/14 08:50:39;;;;;;;9.48;3.70;;;20.20;95.10;;;;;;5039661;28;20095;-78
2023/06/14 08:53:10;;;;;;;8.55;3.22;;;20.30;95.50;;;;;;5033255;28;20049;-81
2023/06/14 08:55:39;;;;;;;;;;;20.30;95.30;;;;;;5039512;28;20060;-79
2023/06/14 08:58:14;;;;;;;4.53;3.28;;;20.40;95.40;;;;;;5032583;28;19921;-79
2023/06/14 09:00:42;;;;;;;7.15;3.38;;;20.50;95.40;;;;;;5038878;28;20045;-80
2023/06/14 09:03:13;;;;;;;8.43;3.85;;;20.60;94.50;;;;;;5036155;28;20041;-79
2023/06/14 09:05:40;;;;;;;9.77;3.85;;;20.60;94.60;;;;;;5040661;28;20072;-80
2023/06/14 09:08:07;;;;;;;7.38;3.97;;;20.70;93.60;;;;;;5035880;28;20049;-80
2023/06/14 09:10:37;;;;;;;5.90;3.30;;;20.80;92.70;;;;;;5039370;28;20045;-79
2023/06/14 09:13:04;;;;;;;4.22;3.08;;;20.90;93.50;;;;;;5033354;28;20101;-78
2023/06/14 09:15:31;;;;;;;7.85;3.15;;;21.00;92.40;;;;;;5040214;28;20057;-77
2023/06/14 09:18:01;;;;;;;8.95;3.95;;;21.00;93.20;;;;;;5035661;28;20041;-79
2023/06/14 09:20:30;;;;;;;5.65;3.45;;;21.20;93.00;;;;;;5038882;28;20392;-80
2023/06/14 09:22:58;;;;;;;6.18;3.17;;;21.20;93.20;;;;;;5036331;28;20053;-78
2023/06/14 09:25:25;;;;;;;5.43;3.33;;;21.30;92.70;;;;;;5038850;28;20049;-80
2023/06/14 09:28:09;;;;;;;3.60;2.95;;;21.40;92.40;;;;;;5036365;28;20073;-79
2023/06/14 09:30:39;;;;;;;5.50;3.25;;;21.50;92.40;;;;;;5038799;28;20458;-79
2023/06/14 09:33:06;;;;;;;4.55;3.00;;;21.50;92.30;;;;;;5038747;28;20065;-79
2023/06/14 09:35:34;;;;;;;9.20;3.40;;;21.60;92.50;;;;;;5038198;28;20101;-78
2023/06/14 09:38:01;;;;;;;3.92;2.95;;;21.70;91.60;;;;;;5035580;28;20045;-79
2023/06/14 09:40:28;;;;;;;3.90;2.92;;;21.70;91.60;;;;;;5039580;28;20533;-81
2023/06/14 09:42:57;;;;;;;7.20;3.38;;;21.80;91.40;;;;;;5039175;28;20561;-79
2023/06/14 09:45:28;;;;;;;3.63;3.20;;;21.80;91.00;;;;;;5039702;28;20049;-80
2023/06/14 09:47:56;;;;;;;7.60;3.42;;;21.90;90.70;;;;;;5040090;28;20295;-78
2023/06/14 09:50:34;;;;;;;7.93;2.67;;;22.00;90.90;;;;;;5040481;28;20072;-80
2023/06/14 09:53:10;;;;;;;4.55;3.38;;;22.10;91.60;;;;;;5034588;28;20046;-79
2023/06/14 09:55:37;;;;;;;4.88;3.20;;;22.10;91.80;;;;;;5039607;28;20049;-80
2023/06/14 09:58:06;;;;;;;9.40;3.33;;;22.20;91.60;;;;;;5036068;28;20037;-81
2023/06/14 10:00:36;;;;;;;5.25;3.15;;;22.30;91.40;;;;;;5039707;28;20096;-77
2023/06/14 10:03:11;;;;;;;8.02;3.20;;;22.30;90.90;;;;;;5036800;28;20053;-79
2023/06/14 10:05:41;;;;;;;5.53;3.42;;;22.40;90.80;;;;;;5039852;28;20052;-78
2023/06/14 10:08:09;;;;;;;;;;;22.40;91.20;;;;;;5040846;28;20042;-80
2023/06/14 10:10:38;;;;;;;4.50;2.90;;;22.40;91.80;;;;;;5039045;28;19921;-79
2023/06/14 10:13:05;;;;;;;14.77;3.30;;;22.50;91.00;;;;;;5039612;28;20045;-78
2023/06/14 10:16:08;;;;;;;4.68;3.08;;;22.60;91.70;;;;;;5038754;28;20042;-79
2023/06/14 10:19:03;;;;;;;5.43;2.92;;;22.60;91.50;;;;;;5039086;28;20052;-78
2023/06/14 10:21:53;;;;;;;8.57;3.95;;;22.60;91.40;;;;;;5037858;28;20065;-80
2023/06/14 10:24:30;;;;;;;6.43;3.40;;;22.70;91.20;;;;;;5040379;28;20056;-81
2023/06/14 10:26:59;;;;;;;8.88;3.33;;;22.70;90.70;;;;;;5048375;28;20069;-79
2023/06/14 10:29:32;;;;;;;6.38;3.35;;;22.80;90.50;;;;;;5047573;28;20076;-80
2023/06/14 10:32:00;;;;;;;3.90;2.85;;;22.90;91.00;;;;;;5049569;28;20041;-80
2023/06/14 10:34:28;;;;;;;5.53;3.10;;;23.00;91.00;;;;;;5048535;28;20045;-81
2023/06/14 10:37:07;;;;;;;5.05;3.65;;;23.00;90.40;;;;;;5049157;28;20073;-80
2023/06/14 10:39:42;;;;;;;5.97;3.20;;;23.10;90.10;;;;;;5049019;28;20053;-81
2023/06/14 10:42:09;;;;;;;7.95;3.05;;;23.20;90.40;;;;;;5049027;28;20045;-82
2023/06/14 10:44:45;;;;;;;7.40;3.05;;;23.20;90.30;;;;;;5048791;28;20604;-80
2023/06/14 10:47:32;;;;;;;6.90;3.40;;;23.30;90.10;;;;;;5048806;28;20053;-81
2023/06/14 10:50:02;;;;;;;8.30;3.22;;;23.40;90.60;;;;;;5047189;28;20037;-82
2023/06/14 10:52:29;;;;;;;3.78;2.60;;;23.40;90.20;;;;;;5050917;28;20045;-81
2023/06/14 10:55:14;;;;;;;4.53;2.97;;;23.50;90.10;;;;;;5051447;28;20041;-81
2023/06/14 10:57:48;;;;;;;8.88;3.25;;;23.50;89.80;;;;;;5051161;28;20064;-83
2023/06/14 11:00:25;;;;;;;11.73;3.67;;;23.60;90.20;;;;;;5049563;28;20110;-82
2023/06/14 11:03:30;;;;;;;4.63;3.30;;;23.60;90.40;;;;;;5052286;28;20045;-82
2023/06/14 11:05:58;;;;;;;4.95;3.65;;;23.70;89.50;;;;;;5049519;28;20049;-82
2023/06/14 11:08:52;;;;;;;4.05;3.25;;;23.70;90.40;;;;;;5049905;28;20053;-79
2023/06/14 11:11:23;;;;;;;4.95;3.20;;;23.70;90.10;;;;;;5050812;28;20053;-80
2023/06/14 11:13:51;;;;;;;7.57;3.15;;;23.80;87.80;;;;;;5051502;28;20038;-82
2023/06/14 11:16:27;;;;;;;3.85;2.83;;;23.90;89.20;;;;;;5049554;28;20042;-84
2023/06/14 11:18:54;;;;;;;5.03;3.08;;;23.90;88.30;;;;;;5049667;28;20103;-81
2023/06/14 11:21:21;;;;;;;7.57;3.40;;;24.00;89.70;;;;;;5048646;28;20041;-80
2023/06/14 11:23:52;;;;;;;5.85;3.30;;;24.00;88.00;;;;;;5051265;28;20049;-79
2023/06/14 11:26:29;;;;;;;8.45;3.40;;;24.10;87.90;;;;;;5048632;28;20076;-82
2023/06/14 11:28:58;;;;;;;4.00;3.50;;;24.10;87.40;;;;;;5048558;28;20069;-82
2023/06/14 11:31:26;;;;;;;5.72;3.33;;;24.10;87.10;;;;;;5050619;28;20084;-82
2023/06/14 11:33:55;;;;;;;8.38;3.53;;;24.20;87.80;;;;;;5049371;28;20041;-81
2023/06/14 11:36:22;;;;;;;9.35;3.28;;;24.20;86.40;;;;;;5049516;28;20050;-82
2023/06/14 11:38:50;;;;;;;9.50;3.40;;;24.20;88.30;;;;;;5050259;28;20095;-82
2023/06/14 11:41:17;;;;;;;4.82;3.47;;;24.20;87.90;;;;;;5049724;28;20041;-82
2023/06/14 11:43:44;;;;;;;5.65;3.22;;;24.30;88.50;;;;;;5048989;28;20049;-79
2023/06/14 11:46:21;;;;;;;3.75;3.00;;;24.30;87.50;;;;;;5050224;28;20041;-83
2023/06/14 11:48:48;;;;;;;7.47;3.28;;;24.40;86.90;;;;;;5049193;28;20049;-82
2023/06/14 11:51:15;;;;;;;6.60;3.35;;;24.40;87.10;;;;;;5049772;28;20118;-81
2023/06/14 11:53:43;;;;;;;4.60;2.90;;;24.40;87.70;;;;;;5048904;28;20072;-80
2023/06/14 11:56:10;;;;;;;5.05;3.05;;;24.50;87.80;;;;;;5050475;28;20076;-82
2023/06/14 11:58:37;;;;;;;9.85;3.63;;;24.50;87.30;;;;;;5050486;28;20045;-81
2023/06/14 12:01:04;;;;;;;5.93;2.97;;;24.50;86.90;;;;;;5050016;28;20079;-82
2023/06/14 12:03:31;;;;;;;5.00;2.95;;;24.50;87.60;;;;;;5050884;28;20093;-82
2023/06/14 12:06:07;;;;;;;6.25;3.03;;;24.50;86.60;;;;;;5050731;28;20075;-81
2023/06/14 12:08:38;;;;;;;4.70;3.22;;;24.50;87.00;;;;;;5049514;28;20088;-83
2023/06/14 12:11:13;;;;;;;3.22;2.70;;;24.60;87.90;;;;;;5050307;28;20064;-79
2023/06/14 12:13:41;;;;;;;6.47;3.25;;;24.60;85.90;;;;;;5062250;28;20049;-84
2023/06/14 12:16:09;;;;;;;5.45;3.30;;;24.60;85.70;;;;;;5048688;28;20072;-81
2023/06/14 12:18:38;;;;;;;11.85;3.30;;;24.60;86.60;;;;;;5049723;28;20064;-83
2023/06/14 12:21:06;;;;;;;7.20;3.35;;;24.70;86.70;;;;;;5049613;28;20060;-83
2023/06/14 12:23:47;;;;;;;7.55;3.40;;;24.70;86.40;;;;;;5049427;28;20049;-83
2023/06/14 12:26:18;;;;;;;10.25;3.17;;;24.70;87.20;;;;;;5046308;28;20057;-79
2023/06/14 12:28:47;;;;;;;9.68;3.92;;;24.80;88.80;;;;;;5048591;28;20061;-82
2023/06/14 12:31:16;;;;;;;8.20;3.65;;;24.80;86.90;;;;;;5042077;28;20049;-82
2023/06/14 12:33:45;;;;;;;6.28;3.15;;;24.90;87.00;;;;;;5041467;28;20037;-79
2023/06/14 12:36:13;;;;;;;12.17;4.17;;;24.80;87.00;;;;;;5039470;28;20109;-80
2023/06/14 12:38:39;;;;;;;6.07;3.20;;;24.90;87.90;;;;;;5044591;28;20306;-81
2023/06/14 12:41:07;;;;;;;8.85;3.00;;;24.90;86.60;;;;;;5044097;28;20049;-79
2023/06/14 12:43:34;;;;;;;6.82;3.30;;;24.80;86.10;;;;;;5044008;28;20049;-81
2023/06/14 12:46:01;;;;;;;5.65;3.13;;;24.80;86.10;;;;;;5047174;28;20053;-79
2023/06/14 12:48:29;;;;;;;5.97;3.15;;;24.90;86.00;;;;;;5040478;28;20045;-82
2023/06/14 12:50:57;;;;;;;7.57;3.25;;;24.90;87.30;;;;;;5045695;28;20082;-83
2023/06/14 12:53:24;;;;;;;4.28;2.92;;;25.00;87.40;;;;;;5044324;28;20069;-79